Logo AVAMET
Benvolgut visitant, si us plau, ingressa Recuperar contrasenya
AVAMET paisatges

Xixona castell

Dades diàries. Acumulats / Últims 30 dies disponibles

Data Temperatura (°C) Humitat rel. (%) Pressió rel. (hPa) Vent (km/h) Precipitació
Mínima Mitjana Màxima Amplitud
tèrmica
Mínima Mitjana Màxima Mínima Mitjana Màxima Predom. Mitjana Ràfega
màxima
Total
(mm)
Índex-n
Mínima Mitjana Màxima Mínima Mitjana Màxima n
0 a 1
P0 max
mm 5'
Dades mensuals acumulades fins l'últim dia disponible
05/2020 9,4 15,2 20,3 18,8 16,4 22,6 27,9 18,5 0 57 76 1.002 1.012 1.021   8,4 88,5 19,6
Dades anuals acumulades fins l'últim dia disponible
2020 1,6 10,1 20,3 13,2 7,2 17,1 27,9 26,3 0 62 100 1.002 1.019 1.035   9,0 123,9 178,8
Últims 30 dies disponibles
19-05-2020 15,9     20,6     24,9 9,0 40 54 69 1.015 1.017 1.020 NW 6,3 25,7 0,0
18-05-2020 12,9     17,8     22,0 9,1 57 65 71 1.018 1.019 1.020 NW 4,5 22,5 0,0
17-05-2020 14,1     15,0     16,4 2,3 71 73 75 1.020 1.020 1.021 NW 0,3 24,1 3,0 0,19 0,80
16-05-2020 13,1     14,8     18,4 5,3 58 69 72 1.012 1.014 1.016 NW 4,7 32,2 0,0
15-05-2020 12,8     14,0     16,9 4,1 0 67 75 1.009 1.011 1.014 NW 2,4 24,1 3,0 0,34 0,40
14-05-2020 9,4     12,9     18,6 9,2 0 70 76 1.002 1.004 1.010 NW 10,5 86,9 9,4 0,71 1,60
13-05-2020 10,9     15,6     19,9 9,0 47 61 76 1.004 1.005 1.006 NW 19,2 75,6 2,8 0,48 1,20
12-05-2020 13,3     17,8     22,8 9,5 41 59 73 1.004 1.007 1.010 NW 5,8 35,4 0,0
11-05-2020 14,2     17,9     22,6 8,4 36 54 66 1.006 1.008 1.011 NW 14,8 78,9 0,0
10-05-2020 12,4     16,9     20,4 8,0 0 54 73 1.003 1.005 1.007 NW 19,5 78,9 1,4 0,20
09-05-2020 15,1     17,1     19,1 4,0 0 71 75 1.008 1.010 1.014 NW 3,1 35,4 0,0
08-05-2020 16,0     20,1     23,9 7,9 0 62 73 1.011 1.013 1.015 NW 4,8 30,6 0,0
07-05-2020 17,7     21,2     24,3 6,6 30 47 69 1.014 1.016 1.017 NW 9,2 48,3 0,0
06-05-2020 17,2     20,9     23,9 6,7 51 60 70 1.013 1.014 1.016 NW 5,0 22,5 0,0
05-05-2020 19,4     23,6     26,5 7,1 0 47 57 1.011 1.012 1.013 NW 3,1 20,9 0,0
04-05-2020 20,3     24,6     27,9 7,6 27 34 44 1.012 1.013 1.016 NW 2,6 27,4 0,0
03-05-2020 19,9     22,7     27,6 7,7 31 38 58 1.014 1.015 1.017 NW 4,5 19,3 0,0
02-05-2020 19,4     22,8     27,6 8,2 0 52 65 1.016 1.017 1.018 NW 12,7 88,5 0,0
01-05-2020 15,2     20,2     25,6 10,4 0 51 64 1.015 1.017 1.018 NW 26,7 88,5 0,0
30-04-2020 15,2     18,3     22,2 7,0 0 51 63 1.014 1.015 1.017 NO 27,5 83,7 0,0
29-04-2020 12,1     16,4     22,5 10,4 0 52 67 1.015 1.016 1.018 NW 11,1 48,3 0,0
28-04-2020 11,7     14,2     18,7 7,0 0 62 71 1.011 1.013 1.016 NW 15,6 67,6 0,0
27-04-2020 11,6     15,2     21,4 9,8 44 65 76 1.009 1.010 1.012 NW 10,8 62,8 7,6 0,80 2,60
26-04-2020 11,1     15,7     19,9 8,8 0 63 70 1.010 1.010 1.011 NW 2,9 25,7 0,0
25-04-2020 11,3     13,1     15,1 3,8 59 70 78 1.007 1.009 1.013 NW 2,6 22,5 0,2
24-04-2020     13,8     18,0 18,0 57 65 73 1.011 1.014 1.016 NW 4,0 25,7 0,0
23-04-2020 11,6     15,3     18,4 6,8 58 66 71 1.017 1.018 1.019 NW 1,6 24,1 0,0
22-04-2020 11,1     12,8     17,2 6,1 0 67 73 1.005 1.010 1.019 NW 14,2 74,0 0,2
21-04-2020 10,0     12,4     14,3 4,3 54 64 72 1.003 1.005 1.007 NW 34,4 86,9 0,2
20-04-2020     15,6     19,6 19,6 0 61 72 1.004 1.005 1.007 NW 29,8 82,1 0,0
Últims 13 mesos disponibles
04/2020 7,1 10,6 15,2 13,3 12,9 17,6 22,5 15,4 39 65 76 1.005 1.015 1.025 NW 7,1 86,9 41,0
03/2020 5,3 9,3 16,1 12,3 7,2 16,0 24,7 19,4 41 62 82 1.008 1.016 1.024 NW 11,7 107,8 61,4
02/2020 5,4 10,9 16,2 13,9 11,9 17,8 23,9 18,5 32 57 77 1.013 1.024 1.032 NW 6,9 93,3 1,0
01/2020 1,6 6,7 12,3 9,8 8,2 13,6 17,6 16,0 47 66 81 1.014 1.024 1.032 NW 10,5 123,9 55,8
12/2019 5,8 9,3 13,9 12,4 10,6 15,6 22,9 17,1 36 62 77 1.005 1.018 1.032 NW 13,0 133,6 32,0
11/2019 4,5 10,1 18,2 12,6 10,2 15,7 22,9 18,4 48 60 79 999 1.010 1.018 NW 23,8 112,7 32,8
10/2019 9,8 15,1 19,6 18,1 13,2 22,0 30,1 20,3 41 60 75 1.008 1.015 1.021 NW 7,7 93,3 43,2
09/2019 12,4 18,0 20,9 21,2 19,5 25,1 30,4 18,0 46 66 75 1.009 1.016 1.021 NW 7,5 83,7 38,2
08/2019 17,6 20,9 25,9 24,7 25,1 29,3 36,2 18,6 31 59 72 1.009 1.014 1.018 SSE 6,4 54,7 17,4
07/2019 18,1 20,9 23,9 25,6 26,4 30,5 36,6 18,5 29 50 73 1.005 1.012 1.018 SSE 6,9 83,7 0,2
06/2019 12,8 17,3 25,8 22,0 21,3 26,3 35,4 22,6 26 50 76 1.007 1.013 1.021 SSE 7,0 72,4 2,0
05/2019 8,5 13,0 18,3 16,9 15,4 20,8 27,0 18,5 40 61 77 1.005 1.014 1.024 SSE 6,4 96,6 4,8
04/2019 6,4 9,7 12,5 13,1 12,8 17,0 24,6 18,2 36 65 84 999 1.012 1.024 SSE 13,1 103,0 87,0
Tots els anys disponibles
2019 1,4 13,2 25,9 16,7 8,8 20,7 36,6 35,2 23 58 84 996 1.016 1.032 NW 10,3 133,6 280,0
2018 1,1 13,3 24,8 16,8 5,9 20,9 33,4 32,3 30 64 82 998 1.016 1.026 NW 10,1 119,1 312,4
2017 -0,4 13,1 25,9 16,7 4,3 20,9 34,2 34,6 9,0 123,9 219,0
2016 2,6 13,2 28,0 16,5 8,9 20,5 37,3 34,7 9,7 132,0 272,6
Temperatura (°C)
Humitat relativa (%)
Velocitat del vent i ràfega màxima (km/h)
Direcció del vent (°)
Pressió (hPa)
Precipitació (mm)
Nota sobre les dades: s'avisa a l'usuari de la provisionalitat i no oficialitat d'aquestes dades
Logo AVAMET blanc
Web allotjada a Sollutia
Llicència de Creative CommonsLa web d'AVAMET i els seus continguts estan subjectes a una llicència de
Reconeixement - No Comercial - Compartir igual
Últimes estacions:  Chera (Ajuntament soci), Benifaió (Inforatge), Altea - Com. Regants (Soci) - - -